Terminal Aerodrome Forecast
Issued by NWS Birmingham, AL

Home | Current Version | Previous Version | Text Only | Print | Product List | Glossary On
Versions: 1 2 3 4 5 6 7 8 9 10 11 12
640
FTUS44 KBMX 242334
TAFBHM
TAF
KBHM 242334Z 2500/2524 01003KT P6SM FEW070 SCT090
     FM251700 04006KT P6SM SCT060=

USA.gov is the U.S. government's official web portal to all federal, state and local government web resources and services.